Adaton, Mississippi
Current Conditions -  °F | °C
As of 7:35 AM on Monday 24 Nov 2014 (Local Time) from KSTF Reporting Station
Clear Clear  
Wind Chill: 55°   Ceiling: Unl
Heat Index: 55°   Visibility: NA
Dew Point: 46°   Wind: 8mph
Humidity: 72%   Direction: 270°W
Pressure: 29.8"   Gusts: 17mph
Location:  33.4256°N, 88.8438°W
Report Text: KSTF 241335Z AUTO 27007G15KT 242V302 CLR 13/08 A2980 RMK AO2 PWINO
Loading
Personal Weather Stations






























Interactive Weather Map New forecast layout! Learn more

10-Day Weather Forecast

Advertisements
Track Severe Weather on mobile